sensor_id;sensor_type;location;lat;lon;timestamp;P1;durP1;ratioP1;P2;durP2;ratioP2
35558;SDS011;21661;50.794;-1.066;2022-12-18T00:01:47;23.23;;;9.00;;
35558;SDS011;21661;50.794;-1.066;2022-12-18T00:04:23;22.17;;;8.52;;
35558;SDS011;21661;50.794;-1.066;2022-12-18T00:06:50;22.52;;;10.52;;
35558;SDS011;21661;50.794;-1.066;2022-12-18T00:09:16;21.48;;;9.70;;
35558;SDS011;21661;50.794;-1.066;2022-12-18T00:11:42;22.83;;;9.90;;
35558;SDS011;21661;50.794;-1.066;2022-12-18T00:14:08;23.58;;;9.95;;
35558;SDS011;21661;50.794;-1.066;2022-12-18T00:16:36;25.48;;;10.82;;
35558;SDS011;21661;50.794;-1.066;2022-12-18T00:19:02;24.40;;;10.80;;
35558;SDS011;21661;50.794;-1.066;2022-12-18T00:21:29;25.00;;;10.82;;
35558;SDS011;21661;50.794;-1.066;2022-12-18T00:23:56;23.10;;;11.00;;
35558;SDS011;21661;50.794;-1.066;2022-12-18T00:26:24;22.23;;;10.32;;
35558;SDS011;21661;50.794;-1.066;2022-12-18T00:28:51;22.95;;;10.38;;
35558;SDS011;21661;50.794;-1.066;2022-12-18T00:31:19;20.65;;;10.10;;
35558;SDS011;21661;50.794;-1.066;2022-12-18T00:33:46;22.60;;;9.20;;
35558;SDS011;21661;50.794;-1.066;2022-12-18T00:36:13;24.48;;;10.35;;
35558;SDS011;21661;50.794;-1.066;2022-12-18T00:38:44;29.60;;;10.18;;
35558;SDS011;21661;50.794;-1.066;2022-12-18T00:41:11;22.70;;;9.93;;
35558;SDS011;21661;50.794;-1.066;2022-12-18T00:43:38;21.42;;;9.88;;
35558;SDS011;21661;50.794;-1.066;2022-12-18T00:46:04;23.20;;;9.45;;
35558;SDS011;21661;50.794;-1.066;2022-12-18T00:48:30;24.73;;;10.10;;
35558;SDS011;21661;50.794;-1.066;2022-12-18T00:50:56;23.60;;;9.05;;
35558;SDS011;21661;50.794;-1.066;2022-12-18T00:53:21;22.00;;;9.18;;
35558;SDS011;21661;50.794;-1.066;2022-12-18T00:55:47;24.73;;;9.85;;
35558;SDS011;21661;50.794;-1.066;2022-12-18T00:58:13;19.23;;;8.93;;
35558;SDS011;21661;50.794;-1.066;2022-12-18T01:00:40;27.65;;;10.32;;
35558;SDS011;21661;50.794;-1.066;2022-12-18T01:03:06;23.15;;;10.63;;
35558;SDS011;21661;50.794;-1.066;2022-12-18T01:05:33;22.48;;;9.73;;
35558;SDS011;21661;50.794;-1.066;2022-12-18T01:07:58;23.95;;;10.02;;
35558;SDS011;21661;50.794;-1.066;2022-12-18T01:10:25;21.95;;;10.02;;
35558;SDS011;21661;50.794;-1.066;2022-12-18T01:12:51;21.98;;;8.88;;
35558;SDS011;21661;50.794;-1.066;2022-12-18T01:15:17;22.33;;;8.95;;
35558;SDS011;21661;50.794;-1.066;2022-12-18T01:17:43;21.55;;;8.68;;
35558;SDS011;21661;50.794;-1.066;2022-12-18T01:20:10;18.42;;;8.73;;
35558;SDS011;21661;50.794;-1.066;2022-12-18T01:22:36;16.65;;;8.10;;
35558;SDS011;21661;50.794;-1.066;2022-12-18T01:25:03;20.80;;;8.57;;
35558;SDS011;21661;50.794;-1.066;2022-12-18T01:27:29;18.83;;;8.80;;
35558;SDS011;21661;50.794;-1.066;2022-12-18T01:29:55;22.73;;;7.82;;
35558;SDS011;21661;50.794;-1.066;2022-12-18T01:32:20;24.08;;;8.93;;
35558;SDS011;21661;50.794;-1.066;2022-12-18T01:34:46;17.50;;;7.68;;
35558;SDS011;21661;50.794;-1.066;2022-12-18T01:37:12;20.10;;;8.75;;
35558;SDS011;21661;50.794;-1.066;2022-12-18T01:39:38;16.42;;;7.38;;
35558;SDS011;21661;50.794;-1.066;2022-12-18T01:42:05;20.98;;;7.93;;
35558;SDS011;21661;50.794;-1.066;2022-12-18T01:47:30;18.30;;;8.15;;
35558;SDS011;21661;50.794;-1.066;2022-12-18T01:52:41;22.80;;;7.85;;
35558;SDS011;21661;50.794;-1.066;2022-12-18T01:55:10;17.00;;;7.20;;
35558;SDS011;21661;50.794;-1.066;2022-12-18T01:57:37;20.42;;;7.93;;
35558;SDS011;21661;50.794;-1.066;2022-12-18T02:00:05;17.67;;;7.88;;
35558;SDS011;21661;50.794;-1.066;2022-12-18T02:02:35;20.50;;;7.97;;
35558;SDS011;21661;50.794;-1.066;2022-12-18T02:05:02;18.33;;;8.10;;
35558;SDS011;21661;50.794;-1.066;2022-12-18T02:07:31;21.70;;;8.18;;
35558;SDS011;21661;50.794;-1.066;2022-12-18T02:09:59;18.98;;;8.30;;
35558;SDS011;21661;50.794;-1.066;2022-12-18T02:17:42;16.60;;;7.18;;
35558;SDS011;21661;50.794;-1.066;2022-12-18T02:20:31;19.52;;;7.95;;
35558;SDS011;21661;50.794;-1.066;2022-12-18T02:26:07;19.98;;;7.38;;
35558;SDS011;21661;50.794;-1.066;2022-12-18T02:29:09;15.95;;;6.88;;
35558;SDS011;21661;50.794;-1.066;2022-12-18T02:31:45;20.90;;;7.82;;
35558;SDS011;21661;50.794;-1.066;2022-12-18T02:34:17;21.67;;;8.23;;
35558;SDS011;21661;50.794;-1.066;2022-12-18T02:36:46;17.30;;;7.28;;
35558;SDS011;21661;50.794;-1.066;2022-12-18T02:39:14;17.13;;;7.72;;
35558;SDS011;21661;50.794;-1.066;2022-12-18T02:41:40;15.77;;;7.35;;
35558;SDS011;21661;50.794;-1.066;2022-12-18T02:44:07;16.85;;;7.07;;
35558;SDS011;21661;50.794;-1.066;2022-12-18T02:46:37;16.35;;;7.35;;
35558;SDS011;21661;50.794;-1.066;2022-12-18T02:59:49;16.63;;;6.97;;
35558;SDS011;21661;50.794;-1.066;2022-12-18T03:02:48;15.88;;;7.18;;
35558;SDS011;21661;50.794;-1.066;2022-12-18T03:05:31;13.38;;;6.55;;
35558;SDS011;21661;50.794;-1.066;2022-12-18T03:08:12;14.90;;;6.88;;
35558;SDS011;21661;50.794;-1.066;2022-12-18T03:10:45;17.00;;;6.90;;
35558;SDS011;21661;50.794;-1.066;2022-12-18T03:13:26;17.00;;;7.20;;
35558;SDS011;21661;50.794;-1.066;2022-12-18T03:15:58;15.90;;;7.32;;
35558;SDS011;21661;50.794;-1.066;2022-12-18T03:18:25;17.58;;;7.35;;
35558;SDS011;21661;50.794;-1.066;2022-12-18T03:21:03;20.00;;;7.40;;
35558;SDS011;21661;50.794;-1.066;2022-12-18T03:23:34;20.90;;;7.28;;
35558;SDS011;21661;50.794;-1.066;2022-12-18T03:26:05;15.25;;;6.60;;
35558;SDS011;21661;50.794;-1.066;2022-12-18T03:28:39;15.65;;;6.32;;
35558;SDS011;21661;50.794;-1.066;2022-12-18T03:31:10;16.83;;;6.50;;
35558;SDS011;21661;50.794;-1.066;2022-12-18T03:36:24;17.60;;;6.93;;
35558;SDS011;21661;50.794;-1.066;2022-12-18T03:38:50;13.23;;;5.63;;
35558;SDS011;21661;50.794;-1.066;2022-12-18T03:41:22;14.40;;;6.30;;
35558;SDS011;21661;50.794;-1.066;2022-12-18T03:46:52;16.45;;;6.78;;
35558;SDS011;21661;50.794;-1.066;2022-12-18T03:49:18;21.48;;;6.38;;
35558;SDS011;21661;50.794;-1.066;2022-12-18T03:52:06;18.13;;;7.13;;
35558;SDS011;21661;50.794;-1.066;2022-12-18T03:54:55;17.35;;;6.40;;
35558;SDS011;21661;50.794;-1.066;2022-12-18T03:57:25;16.52;;;7.80;;
35558;SDS011;21661;50.794;-1.066;2022-12-18T03:59:56;16.65;;;6.43;;
35558;SDS011;21661;50.794;-1.066;2022-12-18T04:02:25;15.93;;;7.28;;
35558;SDS011;21661;50.794;-1.066;2022-12-18T04:04:52;14.85;;;6.13;;
35558;SDS011;21661;50.794;-1.066;2022-12-18T04:07:20;18.40;;;6.75;;
35558;SDS011;21661;50.794;-1.066;2022-12-18T04:09:48;16.15;;;7.63;;
35558;SDS011;21661;50.794;-1.066;2022-12-18T04:12:15;18.08;;;6.10;;
35558;SDS011;21661;50.794;-1.066;2022-12-18T04:14:40;15.38;;;7.70;;
35558;SDS011;21661;50.794;-1.066;2022-12-18T04:17:06;21.40;;;7.35;;
35558;SDS011;21661;50.794;-1.066;2022-12-18T04:19:32;16.70;;;7.28;;
35558;SDS011;21661;50.794;-1.066;2022-12-18T04:21:57;16.33;;;7.20;;
35558;SDS011;21661;50.794;-1.066;2022-12-18T04:24:23;20.45;;;7.80;;
35558;SDS011;21661;50.794;-1.066;2022-12-18T04:26:48;24.50;;;7.82;;
35558;SDS011;21661;50.794;-1.066;2022-12-18T04:29:14;16.20;;;6.95;;
35558;SDS011;21661;50.794;-1.066;2022-12-18T04:31:40;18.08;;;8.25;;
35558;SDS011;21661;50.794;-1.066;2022-12-18T04:34:05;21.17;;;7.85;;
35558;SDS011;21661;50.794;-1.066;2022-12-18T04:36:31;18.40;;;7.97;;
35558;SDS011;21661;50.794;-1.066;2022-12-18T04:38:56;19.30;;;7.47;;
35558;SDS011;21661;50.794;-1.066;2022-12-18T04:41:22;18.55;;;7.53;;
35558;SDS011;21661;50.794;-1.066;2022-12-18T04:43:48;20.45;;;8.23;;
35558;SDS011;21661;50.794;-1.066;2022-12-18T04:46:13;15.18;;;7.82;;
35558;SDS011;21661;50.794;-1.066;2022-12-18T04:48:39;23.10;;;8.40;;
35558;SDS011;21661;50.794;-1.066;2022-12-18T04:51:05;19.75;;;8.02;;
35558;SDS011;21661;50.794;-1.066;2022-12-18T04:53:31;20.42;;;8.27;;
35558;SDS011;21661;50.794;-1.066;2022-12-18T04:56:07;20.40;;;8.15;;
35558;SDS011;21661;50.794;-1.066;2022-12-18T04:58:35;22.08;;;8.70;;
35558;SDS011;21661;50.794;-1.066;2022-12-18T05:01:01;21.63;;;8.20;;
35558;SDS011;21661;50.794;-1.066;2022-12-18T05:03:27;18.50;;;8.07;;
35558;SDS011;21661;50.794;-1.066;2022-12-18T05:05:53;19.73;;;8.43;;
35558;SDS011;21661;50.794;-1.066;2022-12-18T05:08:19;23.55;;;9.48;;
35558;SDS011;21661;50.794;-1.066;2022-12-18T05:10:44;22.00;;;9.48;;
35558;SDS011;21661;50.794;-1.066;2022-12-18T05:13:10;22.10;;;9.95;;
35558;SDS011;21661;50.794;-1.066;2022-12-18T05:15:36;27.02;;;9.98;;
35558;SDS011;21661;50.794;-1.066;2022-12-18T05:18:02;22.88;;;9.63;;
35558;SDS011;21661;50.794;-1.066;2022-12-18T05:20:28;24.73;;;10.13;;
35558;SDS011;21661;50.794;-1.066;2022-12-18T05:22:55;24.52;;;10.30;;
35558;SDS011;21661;50.794;-1.066;2022-12-18T05:25:21;26.30;;;10.75;;
35558;SDS011;21661;50.794;-1.066;2022-12-18T05:27:47;24.80;;;10.45;;
35558;SDS011;21661;50.794;-1.066;2022-12-18T05:30:13;27.10;;;12.07;;
35558;SDS011;21661;50.794;-1.066;2022-12-18T05:32:40;25.10;;;11.20;;
35558;SDS011;21661;50.794;-1.066;2022-12-18T05:35:07;26.67;;;11.52;;
35558;SDS011;21661;50.794;-1.066;2022-12-18T05:37:33;26.38;;;11.40;;
35558;SDS011;21661;50.794;-1.066;2022-12-18T05:39:59;27.77;;;11.55;;
35558;SDS011;21661;50.794;-1.066;2022-12-18T05:42:25;27.75;;;11.52;;
35558;SDS011;21661;50.794;-1.066;2022-12-18T05:44:50;27.60;;;11.77;;
35558;SDS011;21661;50.794;-1.066;2022-12-18T05:47:16;29.30;;;13.07;;
35558;SDS011;21661;50.794;-1.066;2022-12-18T05:49:41;24.27;;;10.93;;
35558;SDS011;21661;50.794;-1.066;2022-12-18T05:52:07;26.30;;;11.63;;
35558;SDS011;21661;50.794;-1.066;2022-12-18T05:54:33;28.10;;;12.18;;
35558;SDS011;21661;50.794;-1.066;2022-12-18T05:56:59;24.45;;;10.48;;
35558;SDS011;21661;50.794;-1.066;2022-12-18T05:59:25;23.90;;;10.77;;
35558;SDS011;21661;50.794;-1.066;2022-12-18T06:01:50;22.63;;;11.00;;
35558;SDS011;21661;50.794;-1.066;2022-12-18T06:04:16;25.33;;;11.18;;
35558;SDS011;21661;50.794;-1.066;2022-12-18T06:06:42;26.50;;;11.30;;
35558;SDS011;21661;50.794;-1.066;2022-12-18T06:09:07;27.77;;;11.50;;
35558;SDS011;21661;50.794;-1.066;2022-12-18T06:11:35;26.80;;;12.05;;
35558;SDS011;21661;50.794;-1.066;2022-12-18T06:14:01;23.00;;;11.68;;
35558;SDS011;21661;50.794;-1.066;2022-12-18T06:16:28;24.88;;;10.95;;
35558;SDS011;21661;50.794;-1.066;2022-12-18T06:19:01;26.40;;;10.50;;
35558;SDS011;21661;50.794;-1.066;2022-12-18T06:21:28;23.33;;;10.98;;
35558;SDS011;21661;50.794;-1.066;2022-12-18T06:23:54;27.55;;;12.10;;
35558;SDS011;21661;50.794;-1.066;2022-12-18T06:26:20;22.73;;;11.15;;
35558;SDS011;21661;50.794;-1.066;2022-12-18T06:28:46;28.65;;;11.38;;
35558;SDS011;21661;50.794;-1.066;2022-12-18T06:31:11;32.10;;;11.77;;
35558;SDS011;21661;50.794;-1.066;2022-12-18T06:33:38;27.02;;;11.65;;
35558;SDS011;21661;50.794;-1.066;2022-12-18T06:36:13;27.85;;;11.30;;
35558;SDS011;21661;50.794;-1.066;2022-12-18T06:38:40;23.75;;;10.63;;
35558;SDS011;21661;50.794;-1.066;2022-12-18T06:41:10;30.80;;;10.20;;
35558;SDS011;21661;50.794;-1.066;2022-12-18T06:43:41;26.05;;;11.00;;
35558;SDS011;21661;50.794;-1.066;2022-12-18T06:46:06;23.63;;;10.43;;
35558;SDS011;21661;50.794;-1.066;2022-12-18T06:48:33;23.33;;;10.00;;
35558;SDS011;21661;50.794;-1.066;2022-12-18T06:50:59;28.60;;;11.32;;
35558;SDS011;21661;50.794;-1.066;2022-12-18T06:53:25;26.02;;;11.25;;
35558;SDS011;21661;50.794;-1.066;2022-12-18T06:55:51;24.48;;;10.68;;
35558;SDS011;21661;50.794;-1.066;2022-12-18T06:58:16;24.92;;;11.63;;
35558;SDS011;21661;50.794;-1.066;2022-12-18T07:00:42;27.17;;;11.55;;
35558;SDS011;21661;50.794;-1.066;2022-12-18T07:03:08;29.30;;;12.75;;
35558;SDS011;21661;50.794;-1.066;2022-12-18T07:05:34;30.02;;;11.13;;
35558;SDS011;21661;50.794;-1.066;2022-12-18T07:08:04;27.48;;;11.48;;
35558;SDS011;21661;50.794;-1.066;2022-12-18T07:10:29;26.55;;;11.23;;
35558;SDS011;21661;50.794;-1.066;2022-12-18T07:12:55;28.95;;;13.05;;
35558;SDS011;21661;50.794;-1.066;2022-12-18T07:15:21;23.85;;;12.07;;
35558;SDS011;21661;50.794;-1.066;2022-12-18T07:17:46;25.80;;;11.93;;
35558;SDS011;21661;50.794;-1.066;2022-12-18T07:20:12;30.42;;;13.52;;
35558;SDS011;21661;50.794;-1.066;2022-12-18T07:22:37;27.27;;;11.95;;
35558;SDS011;21661;50.794;-1.066;2022-12-18T07:25:03;26.23;;;11.20;;
35558;SDS011;21661;50.794;-1.066;2022-12-18T07:27:29;26.27;;;10.93;;
35558;SDS011;21661;50.794;-1.066;2022-12-18T07:29:55;29.77;;;11.55;;
35558;SDS011;21661;50.794;-1.066;2022-12-18T07:32:20;24.20;;;10.90;;
35558;SDS011;21661;50.794;-1.066;2022-12-18T07:34:46;25.83;;;11.05;;
35558;SDS011;21661;50.794;-1.066;2022-12-18T07:37:11;23.33;;;10.75;;
35558;SDS011;21661;50.794;-1.066;2022-12-18T07:39:37;27.85;;;12.15;;
35558;SDS011;21661;50.794;-1.066;2022-12-18T07:42:03;21.38;;;11.25;;
35558;SDS011;21661;50.794;-1.066;2022-12-18T07:44:47;27.50;;;11.57;;
35558;SDS011;21661;50.794;-1.066;2022-12-18T07:47:13;28.48;;;12.05;;
35558;SDS011;21661;50.794;-1.066;2022-12-18T07:49:38;27.42;;;12.20;;
35558;SDS011;21661;50.794;-1.066;2022-12-18T07:52:04;25.60;;;11.77;;
35558;SDS011;21661;50.794;-1.066;2022-12-18T07:54:29;31.20;;;12.27;;
35558;SDS011;21661;50.794;-1.066;2022-12-18T07:56:55;24.63;;;11.52;;
35558;SDS011;21661;50.794;-1.066;2022-12-18T07:59:20;25.92;;;12.30;;
35558;SDS011;21661;50.794;-1.066;2022-12-18T08:01:46;26.33;;;11.45;;
35558;SDS011;21661;50.794;-1.066;2022-12-18T08:04:12;25.17;;;12.05;;
35558;SDS011;21661;50.794;-1.066;2022-12-18T08:06:37;23.65;;;11.50;;
35558;SDS011;21661;50.794;-1.066;2022-12-18T08:09:03;25.80;;;12.07;;
35558;SDS011;21661;50.794;-1.066;2022-12-18T08:11:28;29.50;;;12.13;;
35558;SDS011;21661;50.794;-1.066;2022-12-18T08:13:54;26.58;;;12.00;;
35558;SDS011;21661;50.794;-1.066;2022-12-18T08:16:20;29.45;;;12.63;;
35558;SDS011;21661;50.794;-1.066;2022-12-18T08:18:47;29.00;;;11.68;;
35558;SDS011;21661;50.794;-1.066;2022-12-18T08:21:14;24.80;;;11.85;;
35558;SDS011;21661;50.794;-1.066;2022-12-18T08:23:45;25.08;;;11.75;;
35558;SDS011;21661;50.794;-1.066;2022-12-18T08:26:11;28.50;;;12.90;;
35558;SDS011;21661;50.794;-1.066;2022-12-18T08:28:37;29.25;;;11.88;;
35558;SDS011;21661;50.794;-1.066;2022-12-18T08:31:03;26.17;;;12.07;;
35558;SDS011;21661;50.794;-1.066;2022-12-18T08:33:29;26.50;;;11.38;;
35558;SDS011;21661;50.794;-1.066;2022-12-18T08:35:55;25.50;;;11.52;;
35558;SDS011;21661;50.794;-1.066;2022-12-18T08:38:20;25.60;;;10.65;;
35558;SDS011;21661;50.794;-1.066;2022-12-18T08:40:46;28.15;;;12.57;;
35558;SDS011;21661;50.794;-1.066;2022-12-18T08:43:11;29.30;;;12.55;;
35558;SDS011;21661;50.794;-1.066;2022-12-18T08:45:55;28.70;;;12.73;;
35558;SDS011;21661;50.794;-1.066;2022-12-18T08:48:21;27.67;;;12.45;;
35558;SDS011;21661;50.794;-1.066;2022-12-18T08:50:54;25.42;;;11.93;;
35558;SDS011;21661;50.794;-1.066;2022-12-18T08:53:23;30.17;;;12.13;;
35558;SDS011;21661;50.794;-1.066;2022-12-18T08:55:49;29.92;;;12.40;;
35558;SDS011;21661;50.794;-1.066;2022-12-18T08:58:15;25.55;;;11.50;;
35558;SDS011;21661;50.794;-1.066;2022-12-18T09:00:40;23.90;;;11.63;;
35558;SDS011;21661;50.794;-1.066;2022-12-18T09:03:10;24.98;;;11.35;;
35558;SDS011;21661;50.794;-1.066;2022-12-18T09:08:03;23.38;;;12.13;;
35558;SDS011;21661;50.794;-1.066;2022-12-18T09:10:28;27.10;;;11.95;;
35558;SDS011;21661;50.794;-1.066;2022-12-18T09:12:54;26.88;;;12.90;;
35558;SDS011;21661;50.794;-1.066;2022-12-18T09:15:21;29.17;;;12.57;;
35558;SDS011;21661;50.794;-1.066;2022-12-18T09:17:46;25.88;;;11.70;;
35558;SDS011;21661;50.794;-1.066;2022-12-18T09:20:13;29.05;;;12.65;;
35558;SDS011;21661;50.794;-1.066;2022-12-18T09:22:38;27.08;;;11.93;;
35558;SDS011;21661;50.794;-1.066;2022-12-18T09:25:04;29.70;;;12.77;;
35558;SDS011;21661;50.794;-1.066;2022-12-18T09:27:32;28.50;;;12.77;;
35558;SDS011;21661;50.794;-1.066;2022-12-18T09:29:58;35.47;;;12.13;;
35558;SDS011;21661;50.794;-1.066;2022-12-18T09:32:24;27.17;;;13.25;;
35558;SDS011;21661;50.794;-1.066;2022-12-18T09:34:50;33.25;;;13.95;;
35558;SDS011;21661;50.794;-1.066;2022-12-18T09:37:15;35.90;;;13.77;;
35558;SDS011;21661;50.794;-1.066;2022-12-18T09:39:41;33.28;;;15.40;;
35558;SDS011;21661;50.794;-1.066;2022-12-18T09:42:09;34.97;;;14.82;;
35558;SDS011;21661;50.794;-1.066;2022-12-18T09:44:45;30.38;;;14.52;;
35558;SDS011;21661;50.794;-1.066;2022-12-18T09:49:47;32.88;;;15.55;;
35558;SDS011;21661;50.794;-1.066;2022-12-18T09:52:17;35.63;;;15.30;;
35558;SDS011;21661;50.794;-1.066;2022-12-18T09:55:11;31.38;;;14.45;;
35558;SDS011;21661;50.794;-1.066;2022-12-18T09:57:57;31.15;;;14.32;;
35558;SDS011;21661;50.794;-1.066;2022-12-18T10:00:41;32.90;;;15.35;;
35558;SDS011;21661;50.794;-1.066;2022-12-18T10:03:11;34.75;;;17.45;;
35558;SDS011;21661;50.794;-1.066;2022-12-18T10:08:34;35.20;;;14.77;;
35558;SDS011;21661;50.794;-1.066;2022-12-18T10:11:34;35.17;;;15.40;;
35558;SDS011;21661;50.794;-1.066;2022-12-18T10:17:10;36.72;;;16.67;;
35558;SDS011;21661;50.794;-1.066;2022-12-18T10:19:48;39.92;;;17.65;;
35558;SDS011;21661;50.794;-1.066;2022-12-18T10:25:22;39.92;;;16.10;;
35558;SDS011;21661;50.794;-1.066;2022-12-18T10:28:13;37.50;;;15.65;;
35558;SDS011;21661;50.794;-1.066;2022-12-18T10:30:40;35.60;;;15.32;;
35558;SDS011;21661;50.794;-1.066;2022-12-18T10:33:09;36.92;;;16.65;;
35558;SDS011;21661;50.794;-1.066;2022-12-18T10:35:41;34.55;;;16.75;;
35558;SDS011;21661;50.794;-1.066;2022-12-18T10:48:28;36.35;;;16.17;;
35558;SDS011;21661;50.794;-1.066;2022-12-18T10:50:55;34.70;;;16.88;;
35558;SDS011;21661;50.794;-1.066;2022-12-18T10:53:23;38.00;;;16.08;;
35558;SDS011;21661;50.794;-1.066;2022-12-18T10:55:51;44.15;;;18.05;;
35558;SDS011;21661;50.794;-1.066;2022-12-18T10:58:21;34.67;;;17.10;;
35558;SDS011;21661;50.794;-1.066;2022-12-18T11:03:35;32.42;;;17.15;;
35558;SDS011;21661;50.794;-1.066;2022-12-18T11:06:04;32.90;;;15.25;;
35558;SDS011;21661;50.794;-1.066;2022-12-18T11:08:30;33.33;;;14.88;;
35558;SDS011;21661;50.794;-1.066;2022-12-18T11:10:55;33.88;;;13.95;;
35558;SDS011;21661;50.794;-1.066;2022-12-18T11:13:22;29.10;;;13.88;;
35558;SDS011;21661;50.794;-1.066;2022-12-18T11:15:50;37.13;;;13.73;;
35558;SDS011;21661;50.794;-1.066;2022-12-18T11:20:54;34.53;;;14.63;;
35558;SDS011;21661;50.794;-1.066;2022-12-18T11:23:22;30.52;;;15.63;;
35558;SDS011;21661;50.794;-1.066;2022-12-18T11:25:52;32.47;;;14.20;;
35558;SDS011;21661;50.794;-1.066;2022-12-18T11:28:28;27.25;;;13.88;;
35558;SDS011;21661;50.794;-1.066;2022-12-18T11:31:09;32.63;;;14.18;;
35558;SDS011;21661;50.794;-1.066;2022-12-18T11:33:47;34.47;;;14.40;;
35558;SDS011;21661;50.794;-1.066;2022-12-18T11:36:22;29.23;;;14.35;;
35558;SDS011;21661;50.794;-1.066;2022-12-18T11:38:49;29.50;;;14.25;;
35558;SDS011;21661;50.794;-1.066;2022-12-18T11:41:21;33.33;;;14.65;;
35558;SDS011;21661;50.794;-1.066;2022-12-18T11:44:27;28.33;;;13.60;;
35558;SDS011;21661;50.794;-1.066;2022-12-18T11:47:02;30.88;;;14.15;;
35558;SDS011;21661;50.794;-1.066;2022-12-18T11:49:34;30.63;;;13.43;;
35558;SDS011;21661;50.794;-1.066;2022-12-18T11:52:18;23.48;;;11.93;;
35558;SDS011;21661;50.794;-1.066;2022-12-18T11:54:51;33.97;;;13.48;;
35558;SDS011;21661;50.794;-1.066;2022-12-18T12:07:43;34.35;;;11.80;;
35558;SDS011;21661;50.794;-1.066;2022-12-18T12:10:26;28.33;;;12.60;;
35558;SDS011;21661;50.794;-1.066;2022-12-18T12:13:46;37.38;;;15.85;;
35558;SDS011;21661;50.794;-1.066;2022-12-18T12:26:44;35.75;;;15.48;;
35558;SDS011;21661;50.794;-1.066;2022-12-18T12:35:00;40.65;;;14.40;;
35558;SDS011;21661;50.794;-1.066;2022-12-18T12:40:21;30.17;;;12.35;;
35558;SDS011;21661;50.794;-1.066;2022-12-18T12:42:52;35.00;;;13.52;;
35558;SDS011;21661;50.794;-1.066;2022-12-18T12:45:45;34.08;;;12.90;;
35558;SDS011;21661;50.794;-1.066;2022-12-18T12:53:23;31.42;;;12.15;;
35558;SDS011;21661;50.794;-1.066;2022-12-18T12:55:54;29.00;;;11.48;;
35558;SDS011;21661;50.794;-1.066;2022-12-18T13:04:05;33.78;;;12.50;;
35558;SDS011;21661;50.794;-1.066;2022-12-18T13:07:01;27.70;;;11.13;;
35558;SDS011;21661;50.794;-1.066;2022-12-18T13:09:35;41.40;;;12.82;;
35558;SDS011;21661;50.794;-1.066;2022-12-18T13:12:50;29.85;;;11.77;;
35558;SDS011;21661;50.794;-1.066;2022-12-18T13:15:24;30.05;;;12.50;;
35558;SDS011;21661;50.794;-1.066;2022-12-18T13:20:35;33.50;;;11.68;;
35558;SDS011;21661;50.794;-1.066;2022-12-18T13:30:58;38.67;;;12.77;;
35558;SDS011;21661;50.794;-1.066;2022-12-18T13:41:46;32.80;;;10.27;;
35558;SDS011;21661;50.794;-1.066;2022-12-18T13:44:38;34.72;;;12.18;;
35558;SDS011;21661;50.794;-1.066;2022-12-18T13:47:11;32.03;;;10.32;;
35558;SDS011;21661;50.794;-1.066;2022-12-18T13:49:49;37.25;;;11.77;;
35558;SDS011;21661;50.794;-1.066;2022-12-18T13:52:20;35.92;;;10.93;;
35558;SDS011;21661;50.794;-1.066;2022-12-18T13:54:50;31.98;;;9.85;;
35558;SDS011;21661;50.794;-1.066;2022-12-18T13:57:33;36.88;;;11.38;;
35558;SDS011;21661;50.794;-1.066;2022-12-18T14:02:47;33.10;;;10.63;;
35558;SDS011;21661;50.794;-1.066;2022-12-18T14:07:59;27.33;;;8.82;;
35558;SDS011;21661;50.794;-1.066;2022-12-18T14:10:31;36.35;;;9.73;;
35558;SDS011;21661;50.794;-1.066;2022-12-18T14:12:57;42.92;;;10.10;;
35558;SDS011;21661;50.794;-1.066;2022-12-18T14:18:02;27.50;;;8.32;;
35558;SDS011;21661;50.794;-1.066;2022-12-18T14:20:43;28.13;;;7.40;;
35558;SDS011;21661;50.794;-1.066;2022-12-18T14:25:57;38.70;;;9.60;;
35558;SDS011;21661;50.794;-1.066;2022-12-18T14:28:23;37.75;;;9.07;;
35558;SDS011;21661;50.794;-1.066;2022-12-18T14:30:51;39.60;;;9.18;;
35558;SDS011;21661;50.794;-1.066;2022-12-18T14:33:22;30.45;;;7.95;;
35558;SDS011;21661;50.794;-1.066;2022-12-18T14:35:59;27.95;;;7.03;;
35558;SDS011;21661;50.794;-1.066;2022-12-18T14:38:30;27.75;;;8.30;;
35558;SDS011;21661;50.794;-1.066;2022-12-18T14:41:04;41.42;;;8.43;;
35558;SDS011;21661;50.794;-1.066;2022-12-18T14:43:34;31.73;;;8.55;;
35558;SDS011;21661;50.794;-1.066;2022-12-18T14:46:01;33.00;;;9.45;;
35558;SDS011;21661;50.794;-1.066;2022-12-18T14:48:51;31.65;;;7.97;;
35558;SDS011;21661;50.794;-1.066;2022-12-18T14:51:22;30.17;;;8.57;;
35558;SDS011;21661;50.794;-1.066;2022-12-18T14:53:56;36.25;;;8.85;;
35558;SDS011;21661;50.794;-1.066;2022-12-18T14:56:36;34.90;;;10.80;;
35558;SDS011;21661;50.794;-1.066;2022-12-18T15:02:04;36.88;;;8.30;;
35558;SDS011;21661;50.794;-1.066;2022-12-18T15:04:36;25.45;;;9.18;;
35558;SDS011;21661;50.794;-1.066;2022-12-18T15:07:10;30.98;;;9.25;;
35558;SDS011;21661;50.794;-1.066;2022-12-18T15:09:47;32.13;;;8.70;;
35558;SDS011;21661;50.794;-1.066;2022-12-18T15:20:38;39.00;;;9.52;;
35558;SDS011;21661;50.794;-1.066;2022-12-18T15:23:27;39.63;;;9.63;;
35558;SDS011;21661;50.794;-1.066;2022-12-18T15:28:25;28.77;;;9.35;;
35558;SDS011;21661;50.794;-1.066;2022-12-18T15:30:58;34.65;;;9.65;;
35558;SDS011;21661;50.794;-1.066;2022-12-18T15:33:24;42.40;;;12.38;;
35558;SDS011;21661;50.794;-1.066;2022-12-18T15:35:58;40.30;;;9.30;;
35558;SDS011;21661;50.794;-1.066;2022-12-18T15:38:29;32.45;;;10.82;;
35558;SDS011;21661;50.794;-1.066;2022-12-18T15:40:55;36.92;;;9.65;;
35558;SDS011;21661;50.794;-1.066;2022-12-18T15:43:22;34.13;;;9.45;;
35558;SDS011;21661;50.794;-1.066;2022-12-18T15:48:27;38.38;;;10.13;;
35558;SDS011;21661;50.794;-1.066;2022-12-18T15:50:54;41.00;;;11.73;;
35558;SDS011;21661;50.794;-1.066;2022-12-18T15:53:22;38.85;;;11.25;;
35558;SDS011;21661;50.794;-1.066;2022-12-18T15:55:48;35.20;;;11.23;;
35558;SDS011;21661;50.794;-1.066;2022-12-18T15:58:32;34.88;;;9.95;;
35558;SDS011;21661;50.794;-1.066;2022-12-18T16:00:58;42.45;;;10.27;;
35558;SDS011;21661;50.794;-1.066;2022-12-18T16:03:25;45.17;;;12.05;;
35558;SDS011;21661;50.794;-1.066;2022-12-18T16:05:51;50.58;;;12.85;;
35558;SDS011;21661;50.794;-1.066;2022-12-18T16:08:16;44.00;;;13.38;;
35558;SDS011;21661;50.794;-1.066;2022-12-18T16:10:42;60.83;;;16.60;;
35558;SDS011;21661;50.794;-1.066;2022-12-18T16:13:10;49.17;;;14.88;;
35558;SDS011;21661;50.794;-1.066;2022-12-18T16:15:37;46.83;;;14.43;;
35558;SDS011;21661;50.794;-1.066;2022-12-18T16:18:02;44.33;;;14.25;;
35558;SDS011;21661;50.794;-1.066;2022-12-18T16:20:28;50.55;;;12.75;;
35558;SDS011;21661;50.794;-1.066;2022-12-18T16:22:54;44.90;;;13.35;;
35558;SDS011;21661;50.794;-1.066;2022-12-18T16:25:24;46.47;;;12.18;;
35558;SDS011;21661;50.794;-1.066;2022-12-18T16:27:51;52.95;;;12.18;;
35558;SDS011;21661;50.794;-1.066;2022-12-18T16:30:21;46.53;;;12.43;;
35558;SDS011;21661;50.794;-1.066;2022-12-18T16:32:48;49.38;;;13.35;;
35558;SDS011;21661;50.794;-1.066;2022-12-18T16:35:15;49.90;;;13.23;;
35558;SDS011;21661;50.794;-1.066;2022-12-18T16:37:41;41.13;;;10.77;;
35558;SDS011;21661;50.794;-1.066;2022-12-18T16:40:08;47.35;;;13.10;;
35558;SDS011;21661;50.794;-1.066;2022-12-18T16:42:35;38.53;;;11.77;;
35558;SDS011;21661;50.794;-1.066;2022-12-18T16:45:02;39.80;;;13.43;;
35558;SDS011;21661;50.794;-1.066;2022-12-18T16:47:28;47.97;;;12.75;;
35558;SDS011;21661;50.794;-1.066;2022-12-18T16:49:54;46.22;;;12.73;;
35558;SDS011;21661;50.794;-1.066;2022-12-18T16:52:20;52.05;;;13.15;;
35558;SDS011;21661;50.794;-1.066;2022-12-18T16:54:46;50.75;;;12.05;;